sensor_id;sensor_type;location;lat;lon;timestamp;pressure;altitude;pressure_sealevel;temperature;humidity
68301;BME280;55146;47.468;18.806;2023-03-15T00:01:20;98813.97;;;9.78;79.00
68301;BME280;55146;47.468;18.806;2023-03-15T00:03:48;98818.94;;;9.75;78.94
68301;BME280;55146;47.468;18.806;2023-03-15T00:06:14;98826.31;;;9.80;77.89
68301;BME280;55146;47.468;18.806;2023-03-15T00:08:40;98830.84;;;9.71;78.00
68301;BME280;55146;47.468;18.806;2023-03-15T00:11:06;98834.63;;;9.75;77.04
68301;BME280;55146;47.468;18.806;2023-03-15T00:13:31;98839.31;;;9.74;77.74
68301;BME280;55146;47.468;18.806;2023-03-15T00:15:59;98844.81;;;9.74;77.31
68301;BME280;55146;47.468;18.806;2023-03-15T00:18:26;98837.31;;;9.61;78.39
68301;BME280;55146;47.468;18.806;2023-03-15T00:20:52;98836.25;;;9.76;77.04
68301;BME280;55146;47.468;18.806;2023-03-15T00:23:17;98847.09;;;9.67;77.53
68301;BME280;55146;47.468;18.806;2023-03-15T00:25:44;98851.34;;;9.60;76.65
68301;BME280;55146;47.468;18.806;2023-03-15T00:28:10;98856.16;;;9.68;76.76
68301;BME280;55146;47.468;18.806;2023-03-15T00:30:35;98863.25;;;9.69;75.74
68301;BME280;55146;47.468;18.806;2023-03-15T00:33:01;98860.09;;;9.62;76.00
68301;BME280;55146;47.468;18.806;2023-03-15T00:35:30;98849.13;;;9.62;76.35
68301;BME280;55146;47.468;18.806;2023-03-15T00:37:56;98854.38;;;9.58;75.39
68301;BME280;55146;47.468;18.806;2023-03-15T00:40:22;98857.56;;;9.65;75.32
68301;BME280;55146;47.468;18.806;2023-03-15T00:42:48;98866.09;;;9.64;75.05
68301;BME280;55146;47.468;18.806;2023-03-15T00:45:15;98852.88;;;9.66;75.01
68301;BME280;55146;47.468;18.806;2023-03-15T00:47:41;98852.38;;;9.64;74.78
68301;BME280;55146;47.468;18.806;2023-03-15T00:50:06;98848.97;;;9.53;74.85
68301;BME280;55146;47.468;18.806;2023-03-15T00:52:36;98844.59;;;9.52;74.48
68301;BME280;55146;47.468;18.806;2023-03-15T00:55:02;98839.91;;;9.53;73.52
68301;BME280;55146;47.468;18.806;2023-03-15T00:57:28;98850.00;;;9.57;74.32
68301;BME280;55146;47.468;18.806;2023-03-15T00:59:53;98841.47;;;9.40;73.73
68301;BME280;55146;47.468;18.806;2023-03-15T01:02:18;98840.09;;;9.43;74.48
68301;BME280;55146;47.468;18.806;2023-03-15T01:04:47;98841.63;;;9.49;73.00
68301;BME280;55146;47.468;18.806;2023-03-15T01:07:13;98843.41;;;9.40;73.90
68301;BME280;55146;47.468;18.806;2023-03-15T01:09:38;98839.25;;;9.42;73.47
68301;BME280;55146;47.468;18.806;2023-03-15T01:12:04;98829.47;;;9.36;73.57
68301;BME280;55146;47.468;18.806;2023-03-15T01:14:29;98832.72;;;9.38;72.50
68301;BME280;55146;47.468;18.806;2023-03-15T01:16:54;98839.19;;;9.28;73.73
68301;BME280;55146;47.468;18.806;2023-03-15T01:19:20;98846.06;;;9.26;73.86
68301;BME280;55146;47.468;18.806;2023-03-15T01:21:45;98846.03;;;9.31;73.05
68301;BME280;55146;47.468;18.806;2023-03-15T01:24:13;98845.13;;;9.36;72.27
68301;BME280;55146;47.468;18.806;2023-03-15T01:26:39;98845.22;;;9.30;71.85
68301;BME280;55146;47.468;18.806;2023-03-15T01:29:05;98839.78;;;9.25;71.83
68301;BME280;55146;47.468;18.806;2023-03-15T01:31:31;98835.41;;;9.24;72.90
68301;BME280;55146;47.468;18.806;2023-03-15T01:33:57;98827.47;;;9.23;71.29
68301;BME280;55146;47.468;18.806;2023-03-15T01:36:23;98828.66;;;9.17;71.77
68301;BME280;55146;47.468;18.806;2023-03-15T01:38:49;98822.16;;;9.13;71.80
68301;BME280;55146;47.468;18.806;2023-03-15T01:41:15;98815.53;;;9.14;72.76
68301;BME280;55146;47.468;18.806;2023-03-15T01:43:41;98803.87;;;9.03;73.00
68301;BME280;55146;47.468;18.806;2023-03-15T01:48:54;98805.72;;;9.08;71.30
68301;BME280;55146;47.468;18.806;2023-03-15T01:56:46;98829.94;;;9.06;70.64
68301;BME280;55146;47.468;18.806;2023-03-15T01:59:22;98833.78;;;9.05;70.78
68301;BME280;55146;47.468;18.806;2023-03-15T02:01:49;98828.56;;;9.03;72.56
68301;BME280;55146;47.468;18.806;2023-03-15T02:04:22;98827.25;;;9.01;71.42
68301;BME280;55146;47.468;18.806;2023-03-15T02:06:50;98834.59;;;9.05;71.30
68301;BME280;55146;47.468;18.806;2023-03-15T02:09:28;98828.44;;;8.95;71.05
68301;BME280;55146;47.468;18.806;2023-03-15T02:11:56;98846.44;;;9.01;71.88
68301;BME280;55146;47.468;18.806;2023-03-15T02:14:22;98841.69;;;8.87;71.70
68301;BME280;55146;47.468;18.806;2023-03-15T02:16:48;98850.94;;;8.91;71.39
68301;BME280;55146;47.468;18.806;2023-03-15T02:19:27;98858.00;;;8.98;71.65
68301;BME280;55146;47.468;18.806;2023-03-15T02:22:18;98857.53;;;8.90;71.39
68301;BME280;55146;47.468;18.806;2023-03-15T02:25:10;98847.16;;;8.87;71.94
68301;BME280;55146;47.468;18.806;2023-03-15T02:27:40;98863.16;;;8.80;72.17
68301;BME280;55146;47.468;18.806;2023-03-15T02:30:06;98863.63;;;8.87;72.51
68301;BME280;55146;47.468;18.806;2023-03-15T02:32:31;98853.75;;;8.86;72.44
68301;BME280;55146;47.468;18.806;2023-03-15T02:34:57;98859.31;;;8.81;72.38
68301;BME280;55146;47.468;18.806;2023-03-15T02:37:23;98860.63;;;8.84;72.37
68301;BME280;55146;47.468;18.806;2023-03-15T02:39:48;98855.00;;;8.75;72.07
68301;BME280;55146;47.468;18.806;2023-03-15T02:42:13;98850.34;;;8.76;72.66
68301;BME280;55146;47.468;18.806;2023-03-15T02:44:42;98852.31;;;8.70;73.55
68301;BME280;55146;47.468;18.806;2023-03-15T02:47:29;98851.44;;;8.75;73.33
68301;BME280;55146;47.468;18.806;2023-03-15T02:49:56;98865.37;;;8.78;73.71
68301;BME280;55146;47.468;18.806;2023-03-15T02:52:22;98859.31;;;8.81;73.59
68301;BME280;55146;47.468;18.806;2023-03-15T02:54:48;98863.50;;;8.74;74.32
68301;BME280;55146;47.468;18.806;2023-03-15T02:57:16;98861.81;;;8.78;74.84
68301;BME280;55146;47.468;18.806;2023-03-15T02:59:42;98871.66;;;8.79;74.94
68301;BME280;55146;47.468;18.806;2023-03-15T03:02:08;98865.66;;;8.77;74.56
68301;BME280;55146;47.468;18.806;2023-03-15T03:04:36;98867.22;;;8.83;74.63
68301;BME280;55146;47.468;18.806;2023-03-15T03:07:02;98875.84;;;8.76;74.39
68301;BME280;55146;47.468;18.806;2023-03-15T03:09:28;98876.34;;;8.78;74.66
68301;BME280;55146;47.468;18.806;2023-03-15T03:11:53;98881.06;;;8.73;74.85
68301;BME280;55146;47.468;18.806;2023-03-15T03:14:19;98872.91;;;8.68;75.26
68301;BME280;55146;47.468;18.806;2023-03-15T03:16:48;98870.38;;;8.71;75.91
68301;BME280;55146;47.468;18.806;2023-03-15T03:19:13;98870.69;;;8.70;75.61
68301;BME280;55146;47.468;18.806;2023-03-15T03:21:39;98862.91;;;8.77;75.52
68301;BME280;55146;47.468;18.806;2023-03-15T03:24:07;98861.31;;;8.76;75.45
68301;BME280;55146;47.468;18.806;2023-03-15T03:26:33;98857.16;;;8.78;74.43
68301;BME280;55146;47.468;18.806;2023-03-15T03:28:58;98852.63;;;8.69;73.09
68301;BME280;55146;47.468;18.806;2023-03-15T03:31:25;98848.00;;;8.64;73.23
68301;BME280;55146;47.468;18.806;2023-03-15T03:33:51;98847.22;;;8.59;72.78
68301;BME280;55146;47.468;18.806;2023-03-15T03:36:18;98855.19;;;8.60;72.72
68301;BME280;55146;47.468;18.806;2023-03-15T03:38:44;98848.31;;;8.63;72.32
68301;BME280;55146;47.468;18.806;2023-03-15T03:41:11;98854.19;;;8.51;73.07
68301;BME280;55146;47.468;18.806;2023-03-15T03:43:38;98849.97;;;8.59;72.53
68301;BME280;55146;47.468;18.806;2023-03-15T03:46:04;98855.78;;;8.57;72.34
68301;BME280;55146;47.468;18.806;2023-03-15T03:48:30;98854.12;;;8.56;71.87
68301;BME280;55146;47.468;18.806;2023-03-15T03:50:56;98856.63;;;8.52;72.13
68301;BME280;55146;47.468;18.806;2023-03-15T03:53:22;98850.28;;;8.57;71.07
68301;BME280;55146;47.468;18.806;2023-03-15T03:55:47;98853.66;;;8.49;71.73
68301;BME280;55146;47.468;18.806;2023-03-15T03:58:13;98858.91;;;8.45;71.81
68301;BME280;55146;47.468;18.806;2023-03-15T04:00:39;98866.53;;;8.48;71.50
68301;BME280;55146;47.468;18.806;2023-03-15T04:03:06;98868.00;;;8.41;70.85
68301;BME280;55146;47.468;18.806;2023-03-15T04:05:31;98874.34;;;8.36;70.94
68301;BME280;55146;47.468;18.806;2023-03-15T04:07:57;98887.78;;;8.38;70.96
68301;BME280;55146;47.468;18.806;2023-03-15T04:10:22;98880.06;;;8.40;70.03
68301;BME280;55146;47.468;18.806;2023-03-15T04:12:52;98896.31;;;8.31;70.31
68301;BME280;55146;47.468;18.806;2023-03-15T04:15:17;98906.78;;;8.24;69.96
68301;BME280;55146;47.468;18.806;2023-03-15T04:17:43;98912.59;;;8.18;69.14
68301;BME280;55146;47.468;18.806;2023-03-15T04:20:09;98907.47;;;8.06;68.43
68301;BME280;55146;47.468;18.806;2023-03-15T04:22:36;98908.34;;;8.01;68.34
68301;BME280;55146;47.468;18.806;2023-03-15T04:25:02;98920.16;;;7.97;67.82
68301;BME280;55146;47.468;18.806;2023-03-15T04:27:28;98916.41;;;7.88;68.00
68301;BME280;55146;47.468;18.806;2023-03-15T04:29:53;98916.06;;;7.94;67.81
68301;BME280;55146;47.468;18.806;2023-03-15T04:32:19;98913.06;;;7.91;67.35
68301;BME280;55146;47.468;18.806;2023-03-15T04:34:44;98914.03;;;7.76;67.35
68301;BME280;55146;47.468;18.806;2023-03-15T04:37:10;98926.87;;;7.76;68.04
68301;BME280;55146;47.468;18.806;2023-03-15T04:39:35;98925.03;;;7.66;67.61
68301;BME280;55146;47.468;18.806;2023-03-15T04:42:00;98932.97;;;7.67;68.39
68301;BME280;55146;47.468;18.806;2023-03-15T04:44:26;98937.94;;;7.60;67.74
68301;BME280;55146;47.468;18.806;2023-03-15T04:46:55;98941.28;;;7.52;68.76
68301;BME280;55146;47.468;18.806;2023-03-15T04:49:20;98948.63;;;7.57;68.93
68301;BME280;55146;47.468;18.806;2023-03-15T04:51:46;98962.16;;;7.38;68.70
68301;BME280;55146;47.468;18.806;2023-03-15T04:54:11;98963.44;;;7.51;68.38
68301;BME280;55146;47.468;18.806;2023-03-15T04:56:37;98964.56;;;7.45;68.47
68301;BME280;55146;47.468;18.806;2023-03-15T04:59:03;98971.19;;;7.39;68.55
68301;BME280;55146;47.468;18.806;2023-03-15T05:01:30;98982.38;;;7.42;68.33
68301;BME280;55146;47.468;18.806;2023-03-15T05:03:56;98985.69;;;7.29;70.02
68301;BME280;55146;47.468;18.806;2023-03-15T05:06:22;98985.69;;;7.29;70.13
68301;BME280;55146;47.468;18.806;2023-03-15T05:08:47;98973.72;;;7.20;70.18
68301;BME280;55146;47.468;18.806;2023-03-15T05:11:13;98990.09;;;7.25;69.90
68301;BME280;55146;47.468;18.806;2023-03-15T05:13:38;98986.03;;;7.17;70.13
68301;BME280;55146;47.468;18.806;2023-03-15T05:16:04;98987.41;;;7.15;70.82
68301;BME280;55146;47.468;18.806;2023-03-15T05:18:29;98983.00;;;7.24;71.05
68301;BME280;55146;47.468;18.806;2023-03-15T05:20:54;98983.28;;;7.17;71.17
68301;BME280;55146;47.468;18.806;2023-03-15T05:23:21;98973.44;;;7.16;71.08
68301;BME280;55146;47.468;18.806;2023-03-15T05:25:51;98983.03;;;7.14;70.58
68301;BME280;55146;47.468;18.806;2023-03-15T05:28:21;98986.31;;;7.11;69.77
68301;BME280;55146;47.468;18.806;2023-03-15T05:30:48;98986.09;;;7.02;70.40
68301;BME280;55146;47.468;18.806;2023-03-15T05:33:14;98982.88;;;6.85;70.17
68301;BME280;55146;47.468;18.806;2023-03-15T05:35:41;98974.09;;;6.88;71.45
68301;BME280;55146;47.468;18.806;2023-03-15T05:38:08;98979.84;;;6.86;71.71
68301;BME280;55146;47.468;18.806;2023-03-15T05:40:33;98978.19;;;6.85;71.75
68301;BME280;55146;47.468;18.806;2023-03-15T05:42:58;98980.13;;;6.80;71.48
68301;BME280;55146;47.468;18.806;2023-03-15T05:45:24;98980.69;;;6.77;71.99
68301;BME280;55146;47.468;18.806;2023-03-15T05:47:49;98984.25;;;6.67;71.98
68301;BME280;55146;47.468;18.806;2023-03-15T05:50:15;98979.87;;;6.76;72.02
68301;BME280;55146;47.468;18.806;2023-03-15T05:52:41;98974.44;;;6.61;72.18
68301;BME280;55146;47.468;18.806;2023-03-15T05:55:06;98961.59;;;6.62;72.97
68301;BME280;55146;47.468;18.806;2023-03-15T05:57:32;98969.28;;;6.60;72.85
68301;BME280;55146;47.468;18.806;2023-03-15T05:59:57;98964.59;;;6.65;72.95
68301;BME280;55146;47.468;18.806;2023-03-15T06:02:22;98971.16;;;6.64;73.71
68301;BME280;55146;47.468;18.806;2023-03-15T06:04:48;98977.97;;;6.62;73.06
68301;BME280;55146;47.468;18.806;2023-03-15T06:07:13;98977.19;;;6.56;73.56
68301;BME280;55146;47.468;18.806;2023-03-15T06:09:39;98979.91;;;6.51;73.99
68301;BME280;55146;47.468;18.806;2023-03-15T06:12:05;98991.69;;;6.46;73.79
68301;BME280;55146;47.468;18.806;2023-03-15T06:14:30;98984.31;;;6.47;74.55
68301;BME280;55146;47.468;18.806;2023-03-15T06:16:56;98981.00;;;6.55;73.89
68301;BME280;55146;47.468;18.806;2023-03-15T06:19:22;98988.37;;;6.55;74.28
68301;BME280;55146;47.468;18.806;2023-03-15T06:21:48;99001.50;;;6.63;73.74
68301;BME280;55146;47.468;18.806;2023-03-15T06:24:14;98994.66;;;6.50;73.71
68301;BME280;55146;47.468;18.806;2023-03-15T06:26:39;98996.59;;;6.49;74.41
68301;BME280;55146;47.468;18.806;2023-03-15T06:29:05;98999.88;;;6.52;74.22
68301;BME280;55146;47.468;18.806;2023-03-15T06:31:30;99002.06;;;6.60;74.42
68301;BME280;55146;47.468;18.806;2023-03-15T06:33:56;99005.59;;;6.50;74.17
68301;BME280;55146;47.468;18.806;2023-03-15T06:36:21;98997.13;;;6.57;74.46
68301;BME280;55146;47.468;18.806;2023-03-15T06:38:50;99002.31;;;6.58;73.82
68301;BME280;55146;47.468;18.806;2023-03-15T06:41:18;99004.50;;;6.56;73.62
68301;BME280;55146;47.468;18.806;2023-03-15T06:43:44;98994.91;;;6.69;74.03
68301;BME280;55146;47.468;18.806;2023-03-15T06:46:09;98990.53;;;6.68;74.30
68301;BME280;55146;47.468;18.806;2023-03-15T06:48:34;98992.75;;;6.66;73.59
68301;BME280;55146;47.468;18.806;2023-03-15T06:51:00;98995.47;;;6.71;73.73
68301;BME280;55146;47.468;18.806;2023-03-15T06:53:25;99001.47;;;6.78;73.57
68301;BME280;55146;47.468;18.806;2023-03-15T06:55:51;98998.75;;;6.68;72.72
68301;BME280;55146;47.468;18.806;2023-03-15T06:58:17;99014.91;;;6.59;73.47
68301;BME280;55146;47.468;18.806;2023-03-15T07:00:42;99024.44;;;6.62;72.49
68301;BME280;55146;47.468;18.806;2023-03-15T07:03:08;99032.09;;;6.70;73.17
68301;BME280;55146;47.468;18.806;2023-03-15T07:05:34;99033.44;;;6.67;72.94
68301;BME280;55146;47.468;18.806;2023-03-15T07:07:59;99037.56;;;6.70;72.58
68301;BME280;55146;47.468;18.806;2023-03-15T07:10:25;99041.66;;;6.72;72.73
68301;BME280;55146;47.468;18.806;2023-03-15T07:12:50;99035.09;;;6.78;72.55
68301;BME280;55146;47.468;18.806;2023-03-15T07:15:16;99047.34;;;6.86;71.85
68301;BME280;55146;47.468;18.806;2023-03-15T07:17:41;99050.09;;;6.81;71.82
68301;BME280;55146;47.468;18.806;2023-03-15T07:20:07;99042.44;;;6.88;71.35
68301;BME280;55146;47.468;18.806;2023-03-15T07:22:33;99050.91;;;6.91;71.73
68301;BME280;55146;47.468;18.806;2023-03-15T07:24:58;99055.03;;;6.89;70.34
68301;BME280;55146;47.468;18.806;2023-03-15T07:27:24;99047.13;;;6.77;71.09
68301;BME280;55146;47.468;18.806;2023-03-15T07:29:49;99055.56;;;6.86;70.39
68301;BME280;55146;47.468;18.806;2023-03-15T07:32:15;99056.97;;;6.78;70.89
68301;BME280;55146;47.468;18.806;2023-03-15T07:34:40;99066.50;;;6.81;69.91
68301;BME280;55146;47.468;18.806;2023-03-15T07:37:06;99069.81;;;6.78;69.48
68301;BME280;55146;47.468;18.806;2023-03-15T07:39:31;99073.34;;;6.68;70.21
68301;BME280;55146;47.468;18.806;2023-03-15T07:41:58;99066.81;;;6.59;70.49
68301;BME280;55146;47.468;18.806;2023-03-15T07:44:24;99066.53;;;6.66;70.12
68301;BME280;55146;47.468;18.806;2023-03-15T07:46:49;99072.28;;;6.54;70.09
68301;BME280;55146;47.468;18.806;2023-03-15T07:49:15;99072.25;;;6.59;70.18
68301;BME280;55146;47.468;18.806;2023-03-15T07:51:41;99069.53;;;6.54;70.36
68301;BME280;55146;47.468;18.806;2023-03-15T07:54:07;99070.91;;;6.46;70.20
68301;BME280;55146;47.468;18.806;2023-03-15T07:56:33;99078.00;;;6.53;69.99
68301;BME280;55146;47.468;18.806;2023-03-15T07:58:58;99093.00;;;6.50;70.37
68301;BME280;55146;47.468;18.806;2023-03-15T08:01:23;99092.22;;;6.60;70.48
68301;BME280;55146;47.468;18.806;2023-03-15T08:03:49;99094.94;;;6.65;70.17
68301;BME280;55146;47.468;18.806;2023-03-15T08:06:14;99100.97;;;6.72;69.44
68301;BME280;55146;47.468;18.806;2023-03-15T08:08:39;99099.59;;;6.64;69.06
68301;BME280;55146;47.468;18.806;2023-03-15T08:11:05;99103.41;;;6.83;69.04
68301;BME280;55146;47.468;18.806;2023-03-15T08:13:30;99116.25;;;6.78;69.14
68301;BME280;55146;47.468;18.806;2023-03-15T08:15:56;99111.59;;;6.83;69.06
68301;BME280;55146;47.468;18.806;2023-03-15T08:18:21;99114.59;;;6.82;68.28
68301;BME280;55146;47.468;18.806;2023-03-15T08:20:47;99114.34;;;6.78;69.11
68301;BME280;55146;47.468;18.806;2023-03-15T08:23:12;99117.87;;;6.79;67.59
68301;BME280;55146;47.468;18.806;2023-03-15T08:25:43;99112.97;;;6.81;67.55
68301;BME280;55146;47.468;18.806;2023-03-15T08:28:09;99129.38;;;6.71;67.77
68301;BME280;55146;47.468;18.806;2023-03-15T08:30:35;99118.72;;;6.64;67.40
68301;BME280;55146;47.468;18.806;2023-03-15T08:33:01;99135.91;;;6.75;68.38
68301;BME280;55146;47.468;18.806;2023-03-15T08:35:26;99135.66;;;6.76;67.98
68301;BME280;55146;47.468;18.806;2023-03-15T08:37:51;99134.81;;;6.81;68.07
68301;BME280;55146;47.468;18.806;2023-03-15T08:40:19;99143.31;;;6.69;67.65
68301;BME280;55146;47.468;18.806;2023-03-15T08:42:51;99144.94;;;6.75;67.77
68301;BME280;55146;47.468;18.806;2023-03-15T08:45:18;99141.94;;;6.62;67.17
68301;BME280;55146;47.468;18.806;2023-03-15T08:47:44;99145.22;;;6.59;67.90
68301;BME280;55146;47.468;18.806;2023-03-15T08:50:13;99152.28;;;6.49;67.71
68301;BME280;55146;47.468;18.806;2023-03-15T08:52:39;99159.66;;;6.49;67.80
68301;BME280;55146;47.468;18.806;2023-03-15T08:55:05;99165.16;;;6.59;67.34
68301;BME280;55146;47.468;18.806;2023-03-15T08:57:31;99165.13;;;6.44;66.86
68301;BME280;55146;47.468;18.806;2023-03-15T09:00:02;99175.78;;;6.45;66.84
68301;BME280;55146;47.468;18.806;2023-03-15T09:02:32;99172.50;;;6.38;66.38
68301;BME280;55146;47.468;18.806;2023-03-15T09:04:58;99169.75;;;6.38;66.50
68301;BME280;55146;47.468;18.806;2023-03-15T09:07:23;99185.06;;;6.39;66.71
68301;BME280;55146;47.468;18.806;2023-03-15T09:09:48;99175.78;;;6.45;67.07
68301;BME280;55146;47.468;18.806;2023-03-15T09:12:15;99183.72;;;6.47;66.93
68301;BME280;55146;47.468;18.806;2023-03-15T09:14:40;99177.19;;;6.53;66.08
68301;BME280;55146;47.468;18.806;2023-03-15T09:17:06;99184.00;;;6.50;66.09
68301;BME280;55146;47.468;18.806;2023-03-15T09:19:32;99185.06;;;6.49;66.37
68301;BME280;55146;47.468;18.806;2023-03-15T09:21:57;99190.00;;;6.58;66.61
68301;BME280;55146;47.468;18.806;2023-03-15T09:24:22;99200.94;;;6.68;66.90
68301;BME280;55146;47.468;18.806;2023-03-15T09:26:48;99194.41;;;6.69;64.91
68301;BME280;55146;47.468;18.806;2023-03-15T09:29:13;99200.97;;;6.73;66.27
68301;BME280;55146;47.468;18.806;2023-03-15T09:31:39;99206.72;;;6.81;66.42
68301;BME280;55146;47.468;18.806;2023-03-15T09:34:04;99210.00;;;6.83;65.43
68301;BME280;55146;47.468;18.806;2023-03-15T09:36:31;99214.91;;;6.91;65.97
68301;BME280;55146;47.468;18.806;2023-03-15T09:38:56;99214.13;;;6.96;64.81
68301;BME280;55146;47.468;18.806;2023-03-15T09:41:39;99218.50;;;6.97;63.96
68301;BME280;55146;47.468;18.806;2023-03-15T09:46:45;99225.84;;;6.86;64.14
68301;BME280;55146;47.468;18.806;2023-03-15T09:49:19;99225.31;;;6.84;64.31
68301;BME280;55146;47.468;18.806;2023-03-15T09:51:54;99223.13;;;6.86;63.99
68301;BME280;55146;47.468;18.806;2023-03-15T09:56:56;99218.78;;;6.90;63.98
68301;BME280;55146;47.468;18.806;2023-03-15T09:59:30;99239.25;;;6.98;63.44
68301;BME280;55146;47.468;18.806;2023-03-15T10:01:58;99227.78;;;6.91;63.55
68301;BME280;55146;47.468;18.806;2023-03-15T10:04:32;99229.44;;;6.97;62.89
68301;BME280;55146;47.468;18.806;2023-03-15T10:07:05;99239.56;;;6.97;62.45
68301;BME280;55146;47.468;18.806;2023-03-15T10:09:36;99235.72;;;7.08;63.06
68301;BME280;55146;47.468;18.806;2023-03-15T10:12:05;99246.66;;;7.08;62.66
68301;BME280;55146;47.468;18.806;2023-03-15T10:15:21;99245.56;;;7.14;62.22
68301;BME280;55146;47.468;18.806;2023-03-15T10:20:28;99243.09;;;7.12;62.37
68301;BME280;55146;47.468;18.806;2023-03-15T10:25:32;99249.69;;;7.21;62.32
68301;BME280;55146;47.468;18.806;2023-03-15T10:30:34;99254.59;;;7.19;60.53
68301;BME280;55146;47.468;18.806;2023-03-15T10:33:25;99252.41;;;7.21;61.53
68301;BME280;55146;47.468;18.806;2023-03-15T10:35:52;99265.53;;;7.19;59.99
68301;BME280;55146;47.468;18.806;2023-03-15T10:38:20;99272.34;;;7.17;59.94
68301;BME280;55146;47.468;18.806;2023-03-15T10:43:24;99258.72;;;7.27;60.37
68301;BME280;55146;47.468;18.806;2023-03-15T10:46:10;99263.63;;;7.25;59.65
68301;BME280;55146;47.468;18.806;2023-03-15T10:48:51;99268.53;;;7.18;58.81
68301;BME280;55146;47.468;18.806;2023-03-15T10:51:21;99271.00;;;7.24;57.95
68301;BME280;55146;47.468;18.806;2023-03-15T10:56:34;99274.81;;;7.18;58.85
68301;BME280;55146;47.468;18.806;2023-03-15T10:59:02;99275.94;;;7.32;58.82
68301;BME280;55146;47.468;18.806;2023-03-15T11:01:29;99276.75;;;7.33;58.97
68301;BME280;55146;47.468;18.806;2023-03-15T11:04:01;99279.50;;;7.38;58.39
68301;BME280;55146;47.468;18.806;2023-03-15T11:06:39;99293.44;;;7.37;57.86
68301;BME280;55146;47.468;18.806;2023-03-15T11:09:09;99298.38;;;7.40;58.55
68301;BME280;55146;47.468;18.806;2023-03-15T11:11:53;99298.91;;;7.42;57.39
68301;BME280;55146;47.468;18.806;2023-03-15T11:14:19;99292.34;;;7.43;56.27
68301;BME280;55146;47.468;18.806;2023-03-15T11:16:54;99294.00;;;7.39;57.45
68301;BME280;55146;47.468;18.806;2023-03-15T11:19:24;99291.81;;;7.51;58.13
68301;BME280;55146;47.468;18.806;2023-03-15T11:21:50;99302.75;;;7.46;57.03
68301;BME280;55146;47.468;18.806;2023-03-15T11:24:36;99312.63;;;7.47;57.80
68301;BME280;55146;47.468;18.806;2023-03-15T11:27:05;99306.56;;;7.55;57.01
68301;BME280;55146;47.468;18.806;2023-03-15T11:29:36;99299.75;;;7.57;57.14
68301;BME280;55146;47.468;18.806;2023-03-15T11:32:13;99312.59;;;7.67;56.73
68301;BME280;55146;47.468;18.806;2023-03-15T11:34:44;99311.50;;;7.58;57.04
68301;BME280;55146;47.468;18.806;2023-03-15T11:37:24;99313.16;;;7.64;56.80
68301;BME280;55146;47.468;18.806;2023-03-15T11:39:57;99314.78;;;7.70;56.53
68301;BME280;55146;47.468;18.806;2023-03-15T11:42:32;99310.41;;;7.74;56.23
68301;BME280;55146;47.468;18.806;2023-03-15T11:45:16;99314.78;;;7.80;54.71
68301;BME280;55146;47.468;18.806;2023-03-15T11:50:13;99319.41;;;7.95;55.87
68301;BME280;55146;47.468;18.806;2023-03-15T11:52:39;99314.72;;;8.10;55.66
68301;BME280;55146;47.468;18.806;2023-03-15T11:55:15;99314.69;;;8.26;55.01
68301;BME280;55146;47.468;18.806;2023-03-15T11:57:46;99320.41;;;8.29;52.82
68301;BME280;55146;47.468;18.806;2023-03-15T12:02:54;99319.88;;;8.22;53.40
68301;BME280;55146;47.468;18.806;2023-03-15T12:08:20;99340.19;;;8.16;51.17
68301;BME280;55146;47.468;18.806;2023-03-15T12:10:46;99341.31;;;8.05;50.74
68301;BME280;55146;47.468;18.806;2023-03-15T12:13:25;99347.88;;;8.04;50.05
68301;BME280;55146;47.468;18.806;2023-03-15T12:15:51;99330.06;;;8.06;49.94
68301;BME280;55146;47.468;18.806;2023-03-15T12:18:19;99331.44;;;8.14;49.38
68301;BME280;55146;47.468;18.806;2023-03-15T12:21:06;99328.41;;;8.21;49.21
68301;BME280;55146;47.468;18.806;2023-03-15T12:23:39;99326.19;;;8.23;48.97
68301;BME280;55146;47.468;18.806;2023-03-15T12:26:08;99324.59;;;8.11;47.53
68301;BME280;55146;47.468;18.806;2023-03-15T12:28:48;99323.75;;;8.11;48.48
68301;BME280;55146;47.468;18.806;2023-03-15T12:31:14;99325.38;;;8.17;48.00
68301;BME280;55146;47.468;18.806;2023-03-15T12:33:48;99330.87;;;8.17;47.00
68301;BME280;55146;47.468;18.806;2023-03-15T12:39:34;99334.94;;;8.40;48.12
68301;BME280;55146;47.468;18.806;2023-03-15T12:41:50;99345.59;;;8.57;47.28
68301;BME280;55146;47.468;18.806;2023-03-15T12:44:36;99335.88;;;8.79;47.26
68301;BME280;55146;47.468;18.806;2023-03-15T12:47:05;99340.81;;;8.87;47.00
68301;BME280;55146;47.468;18.806;2023-03-15T12:49:35;99330.47;;;8.69;47.37
68301;BME280;55146;47.468;18.806;2023-03-15T12:52:05;99339.16;;;8.86;46.89
68301;BME280;55146;47.468;18.806;2023-03-15T12:54:44;99343.22;;;8.99;47.64
68301;BME280;55146;47.468;18.806;2023-03-15T12:57:13;99350.47;;;8.70;45.83
68301;BME280;55146;47.468;18.806;2023-03-15T13:02:23;99356.97;;;8.84;47.61
68301;BME280;55146;47.468;18.806;2023-03-15T13:04:58;99359.25;;;8.67;46.52
68301;BME280;55146;47.468;18.806;2023-03-15T13:19:19;99379.31;;;8.47;47.14
68301;BME280;55146;47.468;18.806;2023-03-15T13:27:37;99395.81;;;8.32;47.88
68301;BME280;55146;47.468;18.806;2023-03-15T13:35:46;99414.97;;;8.27;46.61
68301;BME280;55146;47.468;18.806;2023-03-15T13:38:23;99411.41;;;8.11;46.34
68301;BME280;55146;47.468;18.806;2023-03-15T13:40:50;99415.22;;;8.15;47.10
68301;BME280;55146;47.468;18.806;2023-03-15T13:43:15;99418.00;;;8.20;48.17
68301;BME280;55146;47.468;18.806;2023-03-15T13:45:41;99408.97;;;8.15;46.92
68301;BME280;55146;47.468;18.806;2023-03-15T13:48:07;99400.44;;;8.21;46.98
68301;BME280;55146;47.468;18.806;2023-03-15T13:50:34;99409.75;;;8.15;45.98
68301;BME280;55146;47.468;18.806;2023-03-15T13:53:00;99423.19;;;8.11;47.69
68301;BME280;55146;47.468;18.806;2023-03-15T13:55:30;99430.59;;;8.26;48.26
68301;BME280;55146;47.468;18.806;2023-03-15T13:57:58;99439.91;;;8.30;47.31
68301;BME280;55146;47.468;18.806;2023-03-15T14:00:25;99436.09;;;8.31;48.10
68301;BME280;55146;47.468;18.806;2023-03-15T14:02:55;99436.06;;;8.46;48.18
68301;BME280;55146;47.468;18.806;2023-03-15T14:05:46;99427.56;;;8.43;47.10
68301;BME280;55146;47.468;18.806;2023-03-15T14:08:31;99431.97;;;8.34;46.10